createdAt,value
2022-11-30T00:01:26.580Z,85.14
2022-11-30T00:07:13.636Z,85.13
2022-11-30T00:09:42.211Z,85.15
2022-11-30T00:12:13.989Z,85.01
2022-11-30T00:14:45.267Z,85.08
2022-11-30T00:17:17.211Z,85.22
2022-11-30T00:19:46.640Z,84.94
2022-11-30T00:22:15.325Z,84.92
2022-11-30T00:24:49.968Z,85.09
2022-11-30T06:11:48.579Z,84.67
2022-11-30T06:14:17.895Z,84.95
2022-11-30T06:16:49.621Z,84.67
2022-11-30T06:19:18.222Z,84.63
2022-11-30T06:21:49.259Z,84.52
2022-11-30T06:24:16.799Z,84.57
2022-11-30T06:26:45.479Z,84.59
2022-11-30T06:29:16.930Z,84.81
2022-11-30T06:31:46.459Z,84.58
2022-11-30T06:34:14.997Z,84.67
2022-11-30T06:36:44.823Z,84.61
2022-11-30T06:39:31.406Z,84.61
2022-11-30T06:42:06.506Z,84.49
2022-11-30T06:44:35.818Z,84.68
2022-11-30T06:47:03.517Z,84.51
2022-11-30T06:49:32.878Z,84.38
2022-11-30T06:52:01.490Z,84.62
2022-11-30T06:54:31.509Z,84.76
2022-11-30T06:56:59.641Z,84.47
2022-11-30T06:59:29.674Z,84.49
2022-11-30T07:02:05.935Z,84.54
2022-11-30T07:04:35.841Z,84.56
2022-11-30T07:07:07.480Z,84.71
2022-11-30T07:10:28.089Z,84.46
2022-11-30T07:12:57.510Z,84.41
2022-11-30T07:15:25.659Z,84.23
2022-11-30T07:17:53.846Z,84.44
2022-11-30T07:20:22.237Z,84.10
2022-11-30T07:23:21.787Z,84.44
2022-11-30T07:26:18.620Z,84.47
2022-11-30T07:28:46.660Z,84.44
2022-11-30T07:31:24.045Z,84.37
2022-11-30T07:33:59.642Z,84.22
2022-11-30T07:46:34.401Z,84.69
2022-11-30T07:52:19.786Z,84.58
2022-11-30T07:55:12.053Z,84.28
2022-11-30T07:57:45.723Z,84.44
2022-11-30T08:00:19.839Z,84.29
2022-11-30T08:02:53.689Z,84.21
2022-11-30T08:05:23.502Z,84.33
2022-11-30T08:07:58.639Z,84.10
2022-11-30T08:10:34.488Z,84.35
2022-11-30T08:13:07.190Z,84.39
2022-11-30T08:15:40.137Z,84.31
2022-11-30T08:18:16.489Z,84.04
2022-11-30T08:20:57.729Z,84.22
2022-11-30T08:23:38.087Z,84.30
2022-11-30T08:26:14.199Z,84.42
2022-11-30T08:28:53.343Z,84.15
2022-11-30T08:32:19.858Z,84.16
2022-11-30T08:35:16.359Z,83.94
2022-11-30T08:38:26.379Z,84.05
2022-11-30T08:41:03.730Z,84.04
2022-11-30T08:43:33.561Z,83.94
2022-11-30T08:49:24.755Z,84.13
2022-11-30T08:52:18.163Z,84.08
2022-11-30T08:54:48.900Z,84.23
2022-11-30T08:57:20.971Z,83.92
2022-11-30T09:03:29.263Z,83.93
2022-11-30T09:07:07.156Z,83.94
2022-11-30T09:09:56.852Z,84.00
2022-11-30T10:49:52.664Z,83.99
2022-11-30T11:09:38.704Z,84.05
2022-11-30T11:32:20.345Z,83.94
2022-11-30T11:34:53.840Z,83.80
2022-11-30T11:37:38.065Z,83.98
2022-11-30T11:56:31.708Z,83.94
2022-11-30T11:59:13.379Z,83.87
2022-11-30T12:11:59.442Z,83.94
2022-11-30T12:14:43.781Z,83.93
2022-11-30T12:36:54.359Z,83.45
2022-11-30T12:39:58.342Z,83.72
2022-11-30T12:53:22.273Z,83.81
2022-11-30T13:05:51.547Z,83.88
2022-11-30T13:08:51.261Z,83.82
2022-11-30T13:41:09.310Z,83.63
2022-11-30T13:43:50.806Z,83.93
2022-11-30T13:46:26.212Z,84.04
2022-11-30T13:49:35.435Z,84.05
2022-11-30T13:52:22.597Z,83.83
2022-11-30T13:54:57.887Z,83.90
2022-11-30T13:57:29.705Z,83.98
2022-11-30T13:59:59.426Z,83.85
2022-11-30T14:02:43.233Z,83.58
2022-11-30T14:10:47.310Z,83.99
2022-11-30T14:13:22.548Z,83.76
2022-11-30T14:16:00.318Z,83.96
2022-11-30T14:18:48.923Z,83.93
2022-11-30T14:21:33.350Z,83.88
2022-11-30T14:24:18.984Z,84.06
2022-11-30T14:26:52.456Z,83.88
2022-11-30T14:36:01.807Z,83.97
2022-11-30T14:39:04.023Z,84.11
2022-11-30T14:41:41.650Z,83.86
2022-11-30T14:58:30.936Z,84.08
2022-11-30T15:28:55.672Z,84.22
2022-11-30T15:31:44.431Z,84.25
2022-11-30T15:35:09.670Z,84.13
2022-11-30T15:38:29.363Z,83.90
2022-11-30T15:47:55.396Z,84.12
2022-11-30T15:51:26.724Z,83.98
2022-11-30T15:54:45.570Z,84.05
2022-11-30T15:57:16.925Z,84.11
2022-11-30T16:00:18.638Z,83.96
2022-11-30T16:03:11.816Z,84.11
2022-11-30T16:06:05.000Z,84.16
2022-11-30T16:08:58.463Z,83.86
2022-11-30T16:11:29.005Z,83.98
2022-11-30T16:15:34.305Z,84.05
2022-11-30T16:18:19.138Z,84.11
2022-11-30T16:20:51.744Z,84.06
2022-11-30T16:23:21.597Z,83.94
2022-11-30T16:25:51.041Z,83.97
2022-11-30T16:28:23.275Z,84.22
2022-11-30T16:30:53.276Z,84.02
2022-11-30T16:33:28.253Z,83.68
2022-11-30T16:36:02.514Z,83.75
2022-11-30T16:38:34.097Z,83.92
2022-11-30T16:41:20.054Z,84.01
2022-11-30T16:43:52.204Z,83.96
2022-11-30T16:46:26.835Z,83.78
2022-11-30T16:48:56.094Z,84.01
2022-11-30T16:51:28.948Z,84.01
2022-11-30T16:54:02.069Z,83.84
2022-11-30T16:56:31.674Z,83.91
2022-11-30T16:59:13.530Z,84.06
2022-11-30T17:01:54.795Z,84.07
2022-11-30T17:04:27.897Z,83.94
2022-11-30T17:07:02.231Z,83.87
2022-11-30T17:09:34.593Z,84.10
2022-11-30T17:12:12.764Z,84.07
2022-11-30T17:16:25.881Z,83.91
2022-11-30T17:18:03.952Z,83.80
2022-11-30T17:21:21.973Z,84.06
2022-11-30T17:24:04.152Z,83.98
2022-11-30T17:26:53.351Z,83.92
2022-11-30T17:29:42.321Z,84.10
2022-11-30T17:32:46.207Z,83.96
2022-11-30T17:35:21.311Z,83.77
2022-11-30T17:37:53.619Z,84.10
2022-11-30T17:40:48.642Z,83.94
2022-11-30T18:17:49.437Z,83.85
2022-11-30T18:31:35.948Z,83.80
2022-11-30T18:34:19.999Z,83.89
2022-11-30T18:51:50.329Z,83.74
2022-11-30T19:02:11.579Z,83.72
2022-11-30T19:04:42.587Z,83.66
2022-11-30T19:07:13.200Z,83.90
2022-11-30T19:10:43.235Z,83.79
2022-11-30T19:19:49.374Z,83.71
2022-11-30T19:25:40.812Z,83.53
2022-11-30T19:34:50.182Z,83.71
2022-11-30T19:37:38.169Z,83.74
2022-11-30T19:40:54.704Z,83.90
2022-11-30T19:43:29.145Z,83.75
2022-11-30T19:46:11.883Z,83.49
2022-11-30T19:49:03.116Z,83.59
2022-11-30T19:51:46.253Z,83.63
2022-11-30T19:54:21.147Z,83.77
2022-11-30T19:57:36.877Z,83.56
2022-11-30T20:04:14.297Z,83.38
2022-11-30T20:07:10.149Z,83.47
2022-11-30T20:18:17.652Z,83.41
2022-11-30T20:21:29.898Z,83.52
2022-11-30T20:25:41.123Z,83.43
2022-11-30T20:28:28.875Z,83.53
2022-11-30T20:31:16.110Z,83.54
2022-11-30T20:33:52.178Z,83.40
2022-11-30T20:37:13.423Z,83.23
2022-11-30T20:43:39.586Z,83.28
2022-11-30T20:46:32.827Z,83.43
2022-11-30T20:49:05.780Z,83.59
2022-11-30T20:52:06.924Z,83.34
2022-11-30T20:54:59.924Z,83.14
2022-11-30T21:01:50.195Z,83.40
2022-11-30T21:04:40.158Z,83.35
2022-11-30T21:07:17.304Z,83.26
2022-11-30T21:10:14.125Z,83.06
2022-11-30T21:18:27.549Z,83.07
2022-11-30T21:21:24.484Z,83.24
2022-11-30T21:24:31.920Z,82.92
2022-11-30T21:27:05.928Z,83.16
2022-11-30T21:29:39.356Z,83.16
2022-11-30T21:33:02.537Z,83.15
2022-11-30T21:35:47.681Z,83.17
2022-11-30T21:38:21.935Z,83.32
2022-11-30T21:40:59.065Z,83.18
2022-11-30T21:43:35.207Z,83.07
2022-11-30T21:46:12.511Z,83.09
2022-11-30T21:48:47.346Z,83.26
2022-11-30T21:51:23.939Z,83.16
2022-11-30T21:54:00.460Z,83.13
2022-11-30T21:56:35.156Z,83.10
2022-11-30T21:59:15.430Z,82.99
2022-11-30T22:01:48.877Z,83.22
2022-11-30T22:04:22.867Z,83.25
2022-11-30T22:06:58.247Z,82.99
2022-11-30T22:09:31.627Z,83.11
2022-11-30T22:12:21.771Z,83.07
2022-11-30T22:15:09.552Z,82.99
2022-11-30T22:17:43.790Z,82.94
2022-11-30T22:20:23.828Z,82.98
2022-11-30T22:22:57.747Z,82.99
2022-11-30T22:25:29.866Z,82.94
2022-11-30T22:28:02.037Z,82.81
2022-11-30T22:30:48.640Z,82.88
2022-11-30T22:33:21.542Z,82.83
2022-11-30T22:35:56.644Z,82.85
2022-11-30T22:38:32.728Z,82.85
2022-11-30T22:41:36.024Z,82.81
2022-11-30T22:44:14.656Z,82.61
2022-11-30T22:46:47.485Z,82.79
2022-11-30T22:49:28.820Z,82.54
2022-11-30T22:52:03.704Z,82.61
2022-11-30T22:54:36.768Z,82.54
2022-11-30T22:57:13.472Z,82.68
2022-11-30T22:59:49.824Z,82.63
2022-11-30T23:02:24.397Z,82.61
2022-11-30T23:05:08.637Z,82.78
2022-11-30T23:07:47.189Z,82.68
2022-11-30T23:10:23.440Z,82.70
2022-11-30T23:13:09.045Z,82.47
2022-11-30T23:15:42.224Z,82.62
2022-11-30T23:18:18.940Z,82.59
2022-11-30T23:20:50.735Z,82.73
2022-11-30T23:23:26.764Z,82.52
2022-11-30T23:26:07.355Z,82.54
2022-11-30T23:28:45.117Z,82.53
2022-11-30T23:31:32.326Z,82.54
2022-11-30T23:34:18.956Z,82.62
2022-11-30T23:36:48.962Z,82.55
2022-11-30T23:39:23.072Z,82.57
2022-11-30T23:41:54.731Z,82.26
2022-11-30T23:44:29.522Z,82.56
2022-11-30T23:47:03.526Z,82.55
2022-11-30T23:49:36.168Z,82.63
2022-11-30T23:52:13.313Z,82.52
2022-11-30T23:54:46.444Z,82.50
2022-11-30T23:57:21.501Z,82.43
2022-11-30T23:59:50.066Z,82.40
